Aberdeen, Canada
Current Conditions -  °F | °C
As of 3:00 PM on Saturday 25 Oct 2014 (Local Time) from CYXE Reporting Station
Overcast Overcast  
Wind Chill: 46°   Ceiling: 25000
Heat Index: 48°   Visibility: 15mi
Dew Point: 27°   Wind: 5mph
Humidity: 43%   Direction: 80°E
Pressure: 29.99"   Gusts: NA
Location:  52.32°N, 106.28°W
Report Text: CYXE 252100Z 08004KT 030V210 15SM SCT160 OVC250 09/M03 A2999 RMK AC3CI5 SLP178
Loading
Personal Weather Stations






























Interactive Weather Map
Tropical Storm Tracking
New forecast layout! Learn more

10-Day Weather Forecast

Advertisements
Track Severe Weather on mobile